Mandoudi — SV3198 — position and weather

sailwx.info

Track history (hours):
 
Tides and Currents Weather Stations Pressure Air Temp Water Temp Dewpoint Dewpoint Depression Visibility Wind Speed Wind Dir Waves Ship Positions

Mandoudi

Last reported at 2015-May-23 02:33 UTC. Time now 2015-May-23 02:44 UTC.
Position N 37°58' E 023°37'.

Length 60 m; draft 4.6 m.

Type: Ship (hazmat cat A). MMSI: 237470200.

Date/timePositionNaut miles runAvg speedWind from/ knotsBaromVisibWave heightAir tempDewpointWater temp
2015-May-23 02:33N 37°58' E 023°37'0 0.0
2015-May-23 01:33N 37°58' E 023°37'0 0.0
2015-May-23 00:33N 37°58' E 023°37'0 0.0
2015-May-22 23:33N 37°58' E 023°37'0 0.0
2015-May-22 22:33N 37°58' E 023°37'0 0.0
2015-May-22 21:33N 37°58' E 023°37'0 0.0
2015-May-22 20:33N 37°58' E 023°37'0 0.0
2015-May-22 19:33N 37°58' E 023°37'0 0.0
2015-May-22 18:33N 37°58' E 023°37'0 0.0
2015-May-22 17:33N 37°58' E 023°37'0 0.0
2015-May-22 16:33N 37°58' E 023°37'0 0.0
2015-May-22 15:33N 37°58' E 023°37'4 3.8
2015-May-22 14:33N 37°60' E 023°33'3 2.6
2015-May-22 13:31N 38°02' E 023°36'0 0.0
2015-May-22 12:32N 38°02' E 023°36'0 0.0
2015-May-22 10:31N 38°02' E 023°36'6 5.8
2015-May-22 09:33N 37°56' E 023°37'1 0.9
2015-May-22 08:33N 37°57' E 023°38'0 0.0
2015-May-22 07:33N 37°57' E 023°38'0 0.0
2015-May-22 06:33N 37°57' E 023°38'0 0.0
2015-May-22 05:33N 37°57' E 023°38'0 0.0
2015-May-22 04:33N 37°57' E 023°38'2 1.5
2015-May-22 03:33N 37°58' E 023°37'0 0.0
2015-May-22 01:19N 37°58' E 023°37'0 0.0
2015-May-22 00:33N 37°58' E 023°37'0 0.0
2015-May-21 23:33N 37°58' E 023°37'0 0.0
2015-May-21 22:33N 37°58' E 023°37'0 0.0
2015-May-21 21:33N 37°58' E 023°37'0 0.0
2015-May-21 20:33N 37°58' E 023°37'0 0.0
2015-May-21 19:33N 37°58' E 023°37'2 2.2
2015-May-21 18:33N 37°57' E 023°34'5 4.6
2015-May-21 17:33N 38°02' E 023°32'0 0.0
2015-May-21 16:28N 38°02' E 023°32'6 4.4
2015-May-21 15:11N 37°56' E 023°35'2 3.3
2015-May-21 14:32N 37°55' E 023°33'0 0.1
2015-May-21 13:31N 37°55' E 023°33'1 0.6
2015-May-21 12:33N 37°55' E 023°33'3 1.7
2015-May-21 10:33N 37°58' E 023°37'0 0.0
2015-May-21 09:33N 37°58' E 023°37'0 0.0
2015-May-21 08:33N 37°58' E 023°37'0 0.0
2015-May-21 07:33N 37°58' E 023°37'0 0.0
2015-May-21 06:33N 37°58' E 023°37'0 0.0
2015-May-21 05:33N 37°58' E 023°37'0 0.0
2015-May-21 04:33N 37°58' E 023°37'0 0.0
2015-May-21 03:33N 37°58' E 023°37'0 0.0
2015-May-21 02:33N 37°58' E 023°37'0 0.0
2015-May-21 01:33N 37°58' E 023°37'0 0.0
2015-May-21 00:33N 37°58' E 023°37'0 0.0
2015-May-20 23:33N 37°58' E 023°37'0 0.0
2015-May-20 22:33N 37°58' E 023°37'0 0.0
2015-May-20 21:33N 37°58' E 023°37'0 0.0
2015-May-20 20:33N 37°58' E 023°37'0 0.0
2015-May-20 19:33N 37°58' E 023°37'0 0.0
2015-May-20 18:33N 37°58' E 023°37'0 0.0
2015-May-20 17:33N 37°58' E 023°37'0 0.0
2015-May-20 16:33N 37°58' E 023°37'0 0.0
2015-May-20 15:33N 37°58' E 023°37'0 0.0
2015-May-20 14:33N 37°58' E 023°37'0 0.0
2015-May-20 13:33N 37°58' E 023°37'0 0.0
2015-May-20 12:33N 37°58' E 023°37'0 0.0
2015-May-20 11:33N 37°58' E 023°37'0 0.4
2015-May-20 10:33N 37°57' E 023°36'4 4.3
2015-May-20 09:33N 38°02' E 023°36'0 0.0
2015-May-20 08:33N 38°02' E 023°36'0 0.0
2015-May-20 07:33N 38°02' E 023°36'0 0.0
2015-May-20 06:33N 38°02' E 023°36'0 0.0
2015-May-20 05:33N 38°02' E 023°36'0 0.4
2015-May-20 04:30N 38°02' E 023°35'4 4.8
2015-May-20 03:33N 37°58' E 023°33'3 0.3
2015-May-19 18:31N 37°58' E 023°37'0 0.0
2015-May-19 17:33N 37°58' E 023°37'0 0.0
2015-May-19 16:33N 37°58' E 023°37'0 0.0
2015-May-19 15:33N 37°58' E 023°37'1 0.6
2015-May-19 14:33N 37°57' E 023°36'2 1.8
2015-May-19 13:33N 37°57' E 023°38'0 0.0
2015-May-19 12:33N 37°57' E 023°38'0 0.0
2015-May-19 11:33N 37°57' E 023°38'0 0.1
2015-May-19 10:33N 37°57' E 023°38'0 0.1
2015-May-19 09:33N 37°57' E 023°38'0 0.0
2015-May-19 08:33N 37°57' E 023°38'0 0.0
2015-May-19 07:33N 37°57' E 023°38'1 1.4
2015-May-19 06:33N 37°58' E 023°37'0 0.0
2015-May-19 05:33N 37°58' E 023°37'0 0.0
2015-May-19 04:32N 37°58' E 023°37'0 0.0
2015-May-18 21:34N 37°58' E 023°37'0 0.0
2015-May-18 20:34N 37°58' E 023°37'0 0.0
2015-May-18 19:33N 37°58' E 023°37'0 0.0
2015-May-18 18:34N 37°58' E 023°37'3 2.7
2015-May-18 17:34N 37°57' E 023°33'5 2.1
2015-May-18 15:16N 38°02' E 023°36'0 0.0
2015-May-18 14:27N 38°02' E 023°36'0 0.0
2015-May-18 13:32N 38°02' E 023°36'3 3.3
2015-May-18 12:33N 38°01' E 023°32'0 0.1
2015-May-18 11:32N 38°01' E 023°32'2 1.5
2015-May-18 10:33N 37°60' E 023°33'5 5.1
2015-May-18 09:33N 37°57' E 023°38'0 0.0
2015-May-18 08:33N 37°57' E 023°38'0 0.2
2015-May-18 07:33N 37°57' E 023°38'0 0.0
2015-May-18 06:33N 37°57' E 023°38'0 0.0
2015-May-18 05:33N 37°57' E 023°38'0 0.0
2015-May-18 04:33N 37°57' E 023°38'2 1.5
2015-May-18 03:33N 37°58' E 023°37'0 0.0
2015-May-17 12:33N 37°58' E 023°37'0 0.0
2015-May-17 11:33N 37°58' E 023°37'0 0.0
2015-May-17 10:33N 37°58' E 023°37'3 3.3
2015-May-17 09:33N 37°59' E 023°33'3 3.2
2015-May-17 08:31N 38°02' E 023°32'0 0.0
2015-May-17 07:33N 38°02' E 023°32'1 0.7
2015-May-17 06:33N 38°01' E 023°31'1 0.6
2015-May-17 05:31N 38°02' E 023°32'0 0.0
2015-May-17 04:33N 38°02' E 023°32'1 0.8
2015-May-17 03:34N 38°01' E 023°32'2 1.7
2015-May-17 02:33N 38°01' E 023°34'1 0.4
2015-May-16 23:24N 38°02' E 023°36'0 0.0
2015-May-16 22:28N 38°02' E 023°36'0 0.0
2015-May-16 21:31N 38°02' E 023°36'0 0.0
2015-May-16 20:28N 38°02' E 023°36'0 0.0
2015-May-16 19:29N 38°02' E 023°36'0 0.0
2015-May-16 18:30N 38°02' E 023°36'0 0.0
2015-May-16 17:33N 38°02' E 023°36'1 0.7
2015-May-16 16:34N 38°02' E 023°35'0 0.0
2015-May-16 15:33N 38°02' E 023°35'0 0.0
2015-May-16 14:33N 38°02' E 023°35'0 0.0
2015-May-16 13:32N 38°02' E 023°35'0 0.0
2015-May-16 12:34N 38°02' E 023°35'0 0.0
2015-May-16 11:34N 38°02' E 023°35'0 0.0
2015-May-16 10:34N 38°02' E 023°35'0 0.0
2015-May-16 09:32N 38°02' E 023°35'0 0.2
2015-May-16 08:34N 38°02' E 023°35'6 5.9
2015-May-16 07:34N 37°57' E 023°38'0 0.1
2015-May-16 06:34N 37°57' E 023°38'0 0.0
2015-May-16 05:33N 37°57' E 023°38'0 0.0
2015-May-16 04:34N 37°57' E 023°38'1 1.4
2015-May-16 03:34N 37°58' E 023°37'0 0.0
2015-May-16 02:33N 37°58' E 023°37'0 0.0
2015-May-16 01:34N 37°58' E 023°37'0 0.0
2015-May-16 00:33N 37°58' E 023°37'0 0.0
2015-May-15 23:33N 37°58' E 023°37'0 0.0
2015-May-15 22:34N 37°58' E 023°37'0 0.0
2015-May-15 21:33N 37°58' E 023°37'0 0.0
2015-May-15 20:33N 37°58' E 023°37'0 0.0
2015-May-15 19:34N 37°58' E 023°37'0 0.0
2015-May-15 18:34N 37°58' E 023°37'0 0.0
2015-May-15 17:33N 37°58' E 023°37'0 0.0
2015-May-15 16:34N 37°58' E 023°37'0 0.0
2015-May-15 15:33N 37°58' E 023°37'0 0.0
2015-May-15 14:33N 37°58' E 023°37'0 0.0
2015-May-15 13:33N 37°58' E 023°37'0 0.0
2015-May-15 12:33N 37°58' E 023°37'4 3.8
2015-May-15 11:33N 37°60' E 023°33'2 2.4
2015-May-15 10:32N 38°02' E 023°31'1 1.5
2015-May-15 09:33N 38°01' E 023°32'6 6.1
2015-May-15 08:33N 37°57' E 023°38'0 0.0
2015-May-15 07:34N 37°57' E 023°38'0 0.0
2015-May-15 06:34N 37°57' E 023°38'1 0.5
2015-May-15 03:34N 37°58' E 023°37'0 0.0
2015-May-15 02:33N 37°58' E 023°37'0 0.0
2015-May-15 01:33N 37°58' E 023°37'0 0.0
2015-May-15 00:33N 37°58' E 023°37'0 0.0
2015-May-14 23:33N 37°58' E 023°37'0 0.0
2015-May-14 22:34N 37°58' E 023°37'0 0.0
2015-May-14 21:33N 37°58' E 023°37'0 0.0
2015-May-14 20:34N 37°58' E 023°37'0 0.0
2015-May-14 19:33N 37°58' E 023°37'3 0.6
2015-May-14 14:23N 37°58' E 023°33'0 0.0
2015-May-14 04:13N 37°58' E 023°33'3 4.5
2015-May-14 03:31N 37°58' E 023°37'0 0.0
2015-May-14 02:30N 37°58' E 023°37'0 0.0
2015-May-14 01:33N 37°58' E 023°37'0 0.0
2015-May-14 00:33N 37°58' E 023°37'0 0.0
2015-May-13 23:33N 37°58' E 023°37'0 0.0
2015-May-13 22:34N 37°58' E 023°37'0 0.0
2015-May-13 21:34N 37°58' E 023°37'0 0.0
2015-May-13 20:33N 37°58' E 023°37'0 0.0
2015-May-13 19:33N 37°58' E 023°37'0 0.0
2015-May-13 18:33N 37°58' E 023°37'0 0.0
2015-May-13 17:33N 37°58' E 023°37'0 0.0
2015-May-13 16:34N 37°58' E 023°37'0 0.0
2015-May-13 15:34N 37°58' E 023°37'0 0.0
2015-May-13 14:34N 37°58' E 023°37'0 0.0
2015-May-13 13:33N 37°58' E 023°37'0 0.0
2015-May-13 12:33N 37°58' E 023°37'0 0.0
2015-May-13 11:33N 37°58' E 023°37'0 0.0
2015-May-13 10:33N 37°58' E 023°37'0 0.0
2015-May-13 09:33N 37°58' E 023°37'0 0.0
2015-May-13 08:33N 37°58' E 023°37'0 0.0
2015-May-13 07:33N 37°58' E 023°37'0 0.0
2015-May-13 06:33N 37°58' E 023°37'0 0.0
2015-May-13 05:33N 37°58' E 023°37'0 0.0
2015-May-13 04:33N 37°58' E 023°37'0 0.0
2015-May-13 03:33N 37°58' E 023°37'  
Track history (hours):
 
Tides and Currents Weather Stations Pressure Air Temp Water Temp Dewpoint Dewpoint Depression Visibility Wind Speed Wind Dir Waves Ship Positions

Mandoudi

Last reported at 2015-May-23 02:33 UTC. Time now 2015-May-23 02:44 UTC.
Position N 37°58' E 023°37'.

Length 60 m; draft 4.6 m.

Type: Ship (hazmat cat A). MMSI: 237470200.

Date/timePositionNaut miles runAvg speedWind from/ knotsBaromVisibWave heightAir tempDewpointWater temp
2015-May-23 02:33N 37°58' E 023°37'0 0.0
2015-May-23 01:33N 37°58' E 023°37'0 0.0
2015-May-23 00:33N 37°58' E 023°37'0 0.0
2015-May-22 23:33N 37°58' E 023°37'0 0.0
2015-May-22 22:33N 37°58' E 023°37'0 0.0
2015-May-22 21:33N 37°58' E 023°37'0 0.0
2015-May-22 20:33N 37°58' E 023°37'0 0.0
2015-May-22 19:33N 37°58' E 023°37'0 0.0
2015-May-22 18:33N 37°58' E 023°37'0 0.0
2015-May-22 17:33N 37°58' E 023°37'0 0.0
2015-May-22 16:33N 37°58' E 023°37'0 0.0
2015-May-22 15:33N 37°58' E 023°37'4 3.8
2015-May-22 14:33N 37°60' E 023°33'3 2.6
2015-May-22 13:31N 38°02' E 023°36'0 0.0
2015-May-22 12:32N 38°02' E 023°36'0 0.0
2015-May-22 10:31N 38°02' E 023°36'6 5.8
2015-May-22 09:33N 37°56' E 023°37'1 0.9
2015-May-22 08:33N 37°57' E 023°38'0 0.0
2015-May-22 07:33N 37°57' E 023°38'0 0.0
2015-May-22 06:33N 37°57' E 023°38'0 0.0
2015-May-22 05:33N 37°57' E 023°38'0 0.0
2015-May-22 04:33N 37°57' E 023°38'2 1.5
2015-May-22 03:33N 37°58' E 023°37'0 0.0
2015-May-22 01:19N 37°58' E 023°37'0 0.0
2015-May-22 00:33N 37°58' E 023°37'0 0.0
2015-May-21 23:33N 37°58' E 023°37'0 0.0
2015-May-21 22:33N 37°58' E 023°37'0 0.0
2015-May-21 21:33N 37°58' E 023°37'0 0.0
2015-May-21 20:33N 37°58' E 023°37'0 0.0
2015-May-21 19:33N 37°58' E 023°37'2 2.2
2015-May-21 18:33N 37°57' E 023°34'5 4.6
2015-May-21 17:33N 38°02' E 023°32'0 0.0
2015-May-21 16:28N 38°02' E 023°32'6 4.4
2015-May-21 15:11N 37°56' E 023°35'2 3.3
2015-May-21 14:32N 37°55' E 023°33'0 0.1
2015-May-21 13:31N 37°55' E 023°33'1 0.6
2015-May-21 12:33N 37°55' E 023°33'3 1.7
2015-May-21 10:33N 37°58' E 023°37'0 0.0
2015-May-21 09:33N 37°58' E 023°37'0 0.0
2015-May-21 08:33N 37°58' E 023°37'0 0.0
2015-May-21 07:33N 37°58' E 023°37'0 0.0
2015-May-21 06:33N 37°58' E 023°37'0 0.0
2015-May-21 05:33N 37°58' E 023°37'0 0.0
2015-May-21 04:33N 37°58' E 023°37'0 0.0
2015-May-21 03:33N 37°58' E 023°37'0 0.0
2015-May-21 02:33N 37°58' E 023°37'0 0.0
2015-May-21 01:33N 37°58' E 023°37'0 0.0
2015-May-21 00:33N 37°58' E 023°37'0 0.0
2015-May-20 23:33N 37°58' E 023°37'0 0.0
2015-May-20 22:33N 37°58' E 023°37'0 0.0
2015-May-20 21:33N 37°58' E 023°37'0 0.0
2015-May-20 20:33N 37°58' E 023°37'0 0.0
2015-May-20 19:33N 37°58' E 023°37'0 0.0
2015-May-20 18:33N 37°58' E 023°37'0 0.0
2015-May-20 17:33N 37°58' E 023°37'0 0.0
2015-May-20 16:33N 37°58' E 023°37'0 0.0
2015-May-20 15:33N 37°58' E 023°37'0 0.0
2015-May-20 14:33N 37°58' E 023°37'0 0.0
2015-May-20 13:33N 37°58' E 023°37'0 0.0
2015-May-20 12:33N 37°58' E 023°37'0 0.0
2015-May-20 11:33N 37°58' E 023°37'0 0.4
2015-May-20 10:33N 37°57' E 023°36'4 4.3
2015-May-20 09:33N 38°02' E 023°36'0 0.0
2015-May-20 08:33N 38°02' E 023°36'0 0.0
2015-May-20 07:33N 38°02' E 023°36'0 0.0
2015-May-20 06:33N 38°02' E 023°36'0 0.0
2015-May-20 05:33N 38°02' E 023°36'0 0.4
2015-May-20 04:30N 38°02' E 023°35'4 4.8
2015-May-20 03:33N 37°58' E 023°33'3 0.3
2015-May-19 18:31N 37°58' E 023°37'0 0.0
2015-May-19 17:33N 37°58' E 023°37'0 0.0
2015-May-19 16:33N 37°58' E 023°37'0 0.0
2015-May-19 15:33N 37°58' E 023°37'1 0.6
2015-May-19 14:33N 37°57' E 023°36'2 1.8
2015-May-19 13:33N 37°57' E 023°38'0 0.0
2015-May-19 12:33N 37°57' E 023°38'0 0.0
2015-May-19 11:33N 37°57' E 023°38'0 0.1
2015-May-19 10:33N 37°57' E 023°38'0 0.1
2015-May-19 09:33N 37°57' E 023°38'0 0.0
2015-May-19 08:33N 37°57' E 023°38'0 0.0
2015-May-19 07:33N 37°57' E 023°38'1 1.4
2015-May-19 06:33N 37°58' E 023°37'0 0.0
2015-May-19 05:33N 37°58' E 023°37'0 0.0
2015-May-19 04:32N 37°58' E 023°37'0 0.0
2015-May-18 21:34N 37°58' E 023°37'0 0.0
2015-May-18 20:34N 37°58' E 023°37'0 0.0
2015-May-18 19:33N 37°58' E 023°37'0 0.0
2015-May-18 18:34N 37°58' E 023°37'3 2.7
2015-May-18 17:34N 37°57' E 023°33'5 2.1
2015-May-18 15:16N 38°02' E 023°36'0 0.0
2015-May-18 14:27N 38°02' E 023°36'0 0.0
2015-May-18 13:32N 38°02' E 023°36'3 3.3
2015-May-18 12:33N 38°01' E 023°32'0 0.1
2015-May-18 11:32N 38°01' E 023°32'2 1.5
2015-May-18 10:33N 37°60' E 023°33'5 5.1
2015-May-18 09:33N 37°57' E 023°38'0 0.0
2015-May-18 08:33N 37°57' E 023°38'0 0.2
2015-May-18 07:33N 37°57' E 023°38'0 0.0
2015-May-18 06:33N 37°57' E 023°38'0 0.0
2015-May-18 05:33N 37°57' E 023°38'0 0.0
2015-May-18 04:33N 37°57' E 023°38'2 1.5
2015-May-18 03:33N 37°58' E 023°37'0 0.0
2015-May-17 12:33N 37°58' E 023°37'0 0.0
2015-May-17 11:33N 37°58' E 023°37'0 0.0
2015-May-17 10:33N 37°58' E 023°37'3 3.3
2015-May-17 09:33N 37°59' E 023°33'3 3.2
2015-May-17 08:31N 38°02' E 023°32'0 0.0
2015-May-17 07:33N 38°02' E 023°32'1 0.7
2015-May-17 06:33N 38°01' E 023°31'1 0.6
2015-May-17 05:31N 38°02' E 023°32'0 0.0
2015-May-17 04:33N 38°02' E 023°32'1 0.8
2015-May-17 03:34N 38°01' E 023°32'2 1.7
2015-May-17 02:33N 38°01' E 023°34'1 0.4
2015-May-16 23:24N 38°02' E 023°36'0 0.0
2015-May-16 22:28N 38°02' E 023°36'0 0.0
2015-May-16 21:31N 38°02' E 023°36'0 0.0
2015-May-16 20:28N 38°02' E 023°36'0 0.0
2015-May-16 19:29N 38°02' E 023°36'0 0.0
2015-May-16 18:30N 38°02' E 023°36'0 0.0
2015-May-16 17:33N 38°02' E 023°36'1 0.7
2015-May-16 16:34N 38°02' E 023°35'0 0.0
2015-May-16 15:33N 38°02' E 023°35'0 0.0
2015-May-16 14:33N 38°02' E 023°35'0 0.0
2015-May-16 13:32N 38°02' E 023°35'0 0.0
2015-May-16 12:34N 38°02' E 023°35'0 0.0
2015-May-16 11:34N 38°02' E 023°35'0 0.0
2015-May-16 10:34N 38°02' E 023°35'0 0.0
2015-May-16 09:32N 38°02' E 023°35'0 0.2
2015-May-16 08:34N 38°02' E 023°35'6 5.9
2015-May-16 07:34N 37°57' E 023°38'0 0.1
2015-May-16 06:34N 37°57' E 023°38'0 0.0
2015-May-16 05:33N 37°57' E 023°38'0 0.0
2015-May-16 04:34N 37°57' E 023°38'1 1.4
2015-May-16 03:34N 37°58' E 023°37'0 0.0
2015-May-16 02:33N 37°58' E 023°37'0 0.0
2015-May-16 01:34N 37°58' E 023°37'0 0.0
2015-May-16 00:33N 37°58' E 023°37'0 0.0
2015-May-15 23:33N 37°58' E 023°37'0 0.0
2015-May-15 22:34N 37°58' E 023°37'0 0.0
2015-May-15 21:33N 37°58' E 023°37'0 0.0
2015-May-15 20:33N 37°58' E 023°37'0 0.0
2015-May-15 19:34N 37°58' E 023°37'0 0.0
2015-May-15 18:34N 37°58' E 023°37'0 0.0
2015-May-15 17:33N 37°58' E 023°37'0 0.0
2015-May-15 16:34N 37°58' E 023°37'0 0.0
2015-May-15 15:33N 37°58' E 023°37'0 0.0
2015-May-15 14:33N 37°58' E 023°37'0 0.0
2015-May-15 13:33N 37°58' E 023°37'0 0.0
2015-May-15 12:33N 37°58' E 023°37'4 3.8
2015-May-15 11:33N 37°60' E 023°33'2 2.4
2015-May-15 10:32N 38°02' E 023°31'1 1.5
2015-May-15 09:33N 38°01' E 023°32'6 6.1
2015-May-15 08:33N 37°57' E 023°38'0 0.0
2015-May-15 07:34N 37°57' E 023°38'0 0.0
2015-May-15 06:34N 37°57' E 023°38'1 0.5
2015-May-15 03:34N 37°58' E 023°37'0 0.0
2015-May-15 02:33N 37°58' E 023°37'0 0.0
2015-May-15 01:33N 37°58' E 023°37'0 0.0
2015-May-15 00:33N 37°58' E 023°37'0 0.0
2015-May-14 23:33N 37°58' E 023°37'0 0.0
2015-May-14 22:34N 37°58' E 023°37'0 0.0
2015-May-14 21:33N 37°58' E 023°37'0 0.0
2015-May-14 20:34N 37°58' E 023°37'0 0.0
2015-May-14 19:33N 37°58' E 023°37'3 0.6
2015-May-14 14:23N 37°58' E 023°33'0 0.0
2015-May-14 04:13N 37°58' E 023°33'3 4.5
2015-May-14 03:31N 37°58' E 023°37'0 0.0
2015-May-14 02:30N 37°58' E 023°37'0 0.0
2015-May-14 01:33N 37°58' E 023°37'0 0.0
2015-May-14 00:33N 37°58' E 023°37'0 0.0
2015-May-13 23:33N 37°58' E 023°37'0 0.0
2015-May-13 22:34N 37°58' E 023°37'0 0.0
2015-May-13 21:34N 37°58' E 023°37'0 0.0
2015-May-13 20:33N 37°58' E 023°37'0 0.0
2015-May-13 19:33N 37°58' E 023°37'0 0.0
2015-May-13 18:33N 37°58' E 023°37'0 0.0
2015-May-13 17:33N 37°58' E 023°37'0 0.0
2015-May-13 16:34N 37°58' E 023°37'0 0.0
2015-May-13 15:34N 37°58' E 023°37'0 0.0
2015-May-13 14:34N 37°58' E 023°37'0 0.0
2015-May-13 13:33N 37°58' E 023°37'0 0.0
2015-May-13 12:33N 37°58' E 023°37'0 0.0
2015-May-13 11:33N 37°58' E 023°37'0 0.0
2015-May-13 10:33N 37°58' E 023°37'0 0.0
2015-May-13 09:33N 37°58' E 023°37'0 0.0
2015-May-13 08:33N 37°58' E 023°37'0 0.0
2015-May-13 07:33N 37°58' E 023°37'0 0.0
2015-May-13 06:33N 37°58' E 023°37'0 0.0
2015-May-13 05:33N 37°58' E 023°37'0 0.0
2015-May-13 04:33N 37°58' E 023°37'0 0.0
2015-May-13 03:33N 37°58' E 023°37'  

Dump ship's entire track history